sensor_id;sensor_type;location;lat;lon;timestamp;temperature;humidity
17843;DHT22;69286;48.222;16.332;2024-02-04T00:01:56;9.20;99.90
17843;DHT22;69286;48.222;16.332;2024-02-04T00:04:25;9.30;99.90
17843;DHT22;69286;48.222;16.332;2024-02-04T00:06:52;9.20;99.90
17843;DHT22;69286;48.222;16.332;2024-02-04T00:09:19;9.20;99.90
17843;DHT22;69286;48.222;16.332;2024-02-04T00:11:48;9.30;99.90
17843;DHT22;69286;48.222;16.332;2024-02-04T00:14:15;9.30;99.90
17843;DHT22;69286;48.222;16.332;2024-02-04T00:16:42;9.30;99.90
17843;DHT22;69286;48.222;16.332;2024-02-04T00:19:09;9.30;99.90
17843;DHT22;69286;48.222;16.332;2024-02-04T00:21:38;9.30;99.90
17843;DHT22;69286;48.222;16.332;2024-02-04T00:24:05;9.30;99.90
17843;DHT22;69286;48.222;16.332;2024-02-04T00:26:32;9.30;99.90
17843;DHT22;69286;48.222;16.332;2024-02-04T00:28:59;9.30;99.90
17843;DHT22;69286;48.222;16.332;2024-02-04T00:31:26;9.30;99.90
17843;DHT22;69286;48.222;16.332;2024-02-04T00:33:53;9.30;99.90
17843;DHT22;69286;48.222;16.332;2024-02-04T00:36:20;9.30;99.90
17843;DHT22;69286;48.222;16.332;2024-02-04T00:38:48;9.30;99.90
17843;DHT22;69286;48.222;16.332;2024-02-04T00:41:15;9.30;99.90
17843;DHT22;69286;48.222;16.332;2024-02-04T00:43:42;9.30;99.90
17843;DHT22;69286;48.222;16.332;2024-02-04T00:46:09;9.30;99.90
17843;DHT22;69286;48.222;16.332;2024-02-04T00:48:36;9.30;99.90
17843;DHT22;69286;48.222;16.332;2024-02-04T00:51:04;9.30;99.90
17843;DHT22;69286;48.222;16.332;2024-02-04T00:53:31;9.30;99.90
17843;DHT22;69286;48.222;16.332;2024-02-04T00:56:01;9.30;99.90
17843;DHT22;69286;48.222;16.332;2024-02-04T00:58:29;9.30;99.90
17843;DHT22;69286;48.222;16.332;2024-02-04T01:00:56;9.40;99.90
17843;DHT22;69286;48.222;16.332;2024-02-04T01:03:23;9.40;99.90
17843;DHT22;69286;48.222;16.332;2024-02-04T01:05:51;9.40;99.90
17843;DHT22;69286;48.222;16.332;2024-02-04T01:08:17;9.40;99.90
17843;DHT22;69286;48.222;16.332;2024-02-04T01:10:44;9.40;99.90
17843;DHT22;69286;48.222;16.332;2024-02-04T01:13:14;9.40;99.90
17843;DHT22;69286;48.222;16.332;2024-02-04T01:15:41;9.40;99.90
17843;DHT22;69286;48.222;16.332;2024-02-04T01:18:08;9.50;99.90
17843;DHT22;69286;48.222;16.332;2024-02-04T01:20:35;9.40;99.90
17843;DHT22;69286;48.222;16.332;2024-02-04T01:23:02;9.40;99.90
17843;DHT22;69286;48.222;16.332;2024-02-04T01:25:29;9.40;99.90
17843;DHT22;69286;48.222;16.332;2024-02-04T01:27:56;9.40;99.90
17843;DHT22;69286;48.222;16.332;2024-02-04T01:30:24;9.30;99.90
17843;DHT22;69286;48.222;16.332;2024-02-04T01:32:51;9.30;99.90
17843;DHT22;69286;48.222;16.332;2024-02-04T01:35:18;9.30;99.90
17843;DHT22;69286;48.222;16.332;2024-02-04T01:37:45;9.20;99.90
17843;DHT22;69286;48.222;16.332;2024-02-04T01:40:14;9.20;99.90
17843;DHT22;69286;48.222;16.332;2024-02-04T01:42:41;9.20;99.90
17843;DHT22;69286;48.222;16.332;2024-02-04T01:45:09;9.20;99.90
17843;DHT22;69286;48.222;16.332;2024-02-04T01:47:38;9.20;99.90
17843;DHT22;69286;48.222;16.332;2024-02-04T01:50:06;9.20;99.90
17843;DHT22;69286;48.222;16.332;2024-02-04T01:52:34;9.20;99.90
17843;DHT22;69286;48.222;16.332;2024-02-04T01:55:03;9.10;99.90
17843;DHT22;69286;48.222;16.332;2024-02-04T01:57:31;9.10;99.90
17843;DHT22;69286;48.222;16.332;2024-02-04T02:00:00;9.10;99.90
17843;DHT22;69286;48.222;16.332;2024-02-04T02:02:28;9.10;99.90
17843;DHT22;69286;48.222;16.332;2024-02-04T02:04:57;9.00;99.90
17843;DHT22;69286;48.222;16.332;2024-02-04T02:07:24;9.00;99.90
17843;DHT22;69286;48.222;16.332;2024-02-04T02:09:53;9.00;99.90
17843;DHT22;69286;48.222;16.332;2024-02-04T02:12:24;9.00;99.90
17843;DHT22;69286;48.222;16.332;2024-02-04T02:14:58;9.00;99.90
17843;DHT22;69286;48.222;16.332;2024-02-04T02:17:33;9.00;99.90
17843;DHT22;69286;48.222;16.332;2024-02-04T02:20:09;9.00;99.90
17843;DHT22;69286;48.222;16.332;2024-02-04T02:22:45;9.00;99.90
17843;DHT22;69286;48.222;16.332;2024-02-04T02:25:16;8.90;99.90
17843;DHT22;69286;48.222;16.332;2024-02-04T02:27:48;8.90;99.90
17843;DHT22;69286;48.222;16.332;2024-02-04T02:30:15;8.90;99.90
17843;DHT22;69286;48.222;16.332;2024-02-04T02:32:44;8.90;99.90
17843;DHT22;69286;48.222;16.332;2024-02-04T02:35:12;8.90;99.90
17843;DHT22;69286;48.222;16.332;2024-02-04T02:37:43;8.90;99.90
17843;DHT22;69286;48.222;16.332;2024-02-04T02:40:19;8.90;99.90
17843;DHT22;69286;48.222;16.332;2024-02-04T02:42:47;8.90;99.90
17843;DHT22;69286;48.222;16.332;2024-02-04T02:45:16;8.90;99.90
17843;DHT22;69286;48.222;16.332;2024-02-04T02:47:44;8.90;99.90
17843;DHT22;69286;48.222;16.332;2024-02-04T02:50:13;8.90;99.90
17843;DHT22;69286;48.222;16.332;2024-02-04T02:52:40;8.80;99.90
17843;DHT22;69286;48.222;16.332;2024-02-04T02:55:07;8.80;99.90
17843;DHT22;69286;48.222;16.332;2024-02-04T02:57:36;8.80;99.90
17843;DHT22;69286;48.222;16.332;2024-02-04T03:00:04;8.80;99.90
17843;DHT22;69286;48.222;16.332;2024-02-04T03:02:32;8.80;99.90
17843;DHT22;69286;48.222;16.332;2024-02-04T03:04:59;8.80;99.90
17843;DHT22;69286;48.222;16.332;2024-02-04T03:07:26;8.80;99.90
17843;DHT22;69286;48.222;16.332;2024-02-04T03:09:54;8.80;99.90
17843;DHT22;69286;48.222;16.332;2024-02-04T03:12:21;8.80;99.90
17843;DHT22;69286;48.222;16.332;2024-02-04T03:14:49;8.80;99.90
17843;DHT22;69286;48.222;16.332;2024-02-04T03:17:16;8.80;99.90
17843;DHT22;69286;48.222;16.332;2024-02-04T03:19:47;8.80;99.90
17843;DHT22;69286;48.222;16.332;2024-02-04T03:22:14;8.80;99.90
17843;DHT22;69286;48.222;16.332;2024-02-04T03:24:41;8.80;99.90
17843;DHT22;69286;48.222;16.332;2024-02-04T03:27:08;8.80;99.90
17843;DHT22;69286;48.222;16.332;2024-02-04T03:29:35;8.80;99.90
17843;DHT22;69286;48.222;16.332;2024-02-04T03:32:04;8.80;99.90
17843;DHT22;69286;48.222;16.332;2024-02-04T03:34:31;8.70;99.90
17843;DHT22;69286;48.222;16.332;2024-02-04T03:36:59;8.60;99.90
17843;DHT22;69286;48.222;16.332;2024-02-04T03:39:26;8.60;99.90
17843;DHT22;69286;48.222;16.332;2024-02-04T03:41:53;8.60;99.90
17843;DHT22;69286;48.222;16.332;2024-02-04T03:44:20;8.60;99.90
17843;DHT22;69286;48.222;16.332;2024-02-04T03:46:48;8.60;99.90
17843;DHT22;69286;48.222;16.332;2024-02-04T03:49:17;8.60;99.90
17843;DHT22;69286;48.222;16.332;2024-02-04T03:51:44;8.70;99.90
17843;DHT22;69286;48.222;16.332;2024-02-04T03:54:11;8.70;99.90
17843;DHT22;69286;48.222;16.332;2024-02-04T03:56:38;8.70;99.90
17843;DHT22;69286;48.222;16.332;2024-02-04T03:59:07;8.70;99.90
17843;DHT22;69286;48.222;16.332;2024-02-04T04:01:36;8.70;99.90
17843;DHT22;69286;48.222;16.332;2024-02-04T04:04:03;8.70;99.90
17843;DHT22;69286;48.222;16.332;2024-02-04T04:06:32;8.70;99.90
17843;DHT22;69286;48.222;16.332;2024-02-04T04:08:59;8.70;99.90
17843;DHT22;69286;48.222;16.332;2024-02-04T04:11:26;8.70;99.90
17843;DHT22;69286;48.222;16.332;2024-02-04T04:13:53;8.70;99.90
17843;DHT22;69286;48.222;16.332;2024-02-04T04:16:21;8.80;99.90
17843;DHT22;69286;48.222;16.332;2024-02-04T04:18:48;8.80;99.90
17843;DHT22;69286;48.222;16.332;2024-02-04T04:21:15;8.80;99.90
17843;DHT22;69286;48.222;16.332;2024-02-04T04:23:44;8.70;99.90
17843;DHT22;69286;48.222;16.332;2024-02-04T04:26:11;8.70;99.90
17843;DHT22;69286;48.222;16.332;2024-02-04T04:28:38;8.70;99.90
17843;DHT22;69286;48.222;16.332;2024-02-04T04:31:05;8.60;99.90
17843;DHT22;69286;48.222;16.332;2024-02-04T04:33:32;8.60;99.90
17843;DHT22;69286;48.222;16.332;2024-02-04T04:35:59;8.60;99.90
17843;DHT22;69286;48.222;16.332;2024-02-04T04:38:26;8.60;99.90
17843;DHT22;69286;48.222;16.332;2024-02-04T04:40:55;8.60;99.90
17843;DHT22;69286;48.222;16.332;2024-02-04T04:43:22;8.50;99.90
17843;DHT22;69286;48.222;16.332;2024-02-04T04:45:48;8.50;99.90
17843;DHT22;69286;48.222;16.332;2024-02-04T04:48:15;8.60;99.90
17843;DHT22;69286;48.222;16.332;2024-02-04T04:50:42;8.60;99.90
17843;DHT22;69286;48.222;16.332;2024-02-04T04:53:09;8.60;99.90
17843;DHT22;69286;48.222;16.332;2024-02-04T04:55:36;8.60;99.90
17843;DHT22;69286;48.222;16.332;2024-02-04T04:58:05;8.60;99.90
17843;DHT22;69286;48.222;16.332;2024-02-04T05:00:32;8.60;99.90
17843;DHT22;69286;48.222;16.332;2024-02-04T05:02:59;8.60;99.90
17843;DHT22;69286;48.222;16.332;2024-02-04T05:05:26;8.60;99.90
17843;DHT22;69286;48.222;16.332;2024-02-04T05:07:53;8.60;99.90
17843;DHT22;69286;48.222;16.332;2024-02-04T05:10:20;8.60;99.90
17843;DHT22;69286;48.222;16.332;2024-02-04T05:12:46;8.60;99.90
17843;DHT22;69286;48.222;16.332;2024-02-04T05:15:15;8.60;99.90
17843;DHT22;69286;48.222;16.332;2024-02-04T05:17:42;8.60;99.90
17843;DHT22;69286;48.222;16.332;2024-02-04T05:20:10;8.70;99.90
17843;DHT22;69286;48.222;16.332;2024-02-04T05:22:37;8.70;99.90
17843;DHT22;69286;48.222;16.332;2024-02-04T05:25:04;8.80;99.90
17843;DHT22;69286;48.222;16.332;2024-02-04T05:27:32;8.80;99.90
17843;DHT22;69286;48.222;16.332;2024-02-04T05:29:59;8.80;99.90
17843;DHT22;69286;48.222;16.332;2024-02-04T05:32:27;8.80;99.90
17843;DHT22;69286;48.222;16.332;2024-02-04T05:34:54;8.70;99.90
17843;DHT22;69286;48.222;16.332;2024-02-04T05:37:21;8.70;99.90
17843;DHT22;69286;48.222;16.332;2024-02-04T05:39:48;8.70;99.90
17843;DHT22;69286;48.222;16.332;2024-02-04T05:42:15;8.70;99.90
17843;DHT22;69286;48.222;16.332;2024-02-04T05:44:42;8.60;99.90
17843;DHT22;69286;48.222;16.332;2024-02-04T05:47:09;8.60;99.90
17843;DHT22;69286;48.222;16.332;2024-02-04T05:49:37;8.60;99.90
17843;DHT22;69286;48.222;16.332;2024-02-04T05:52:06;8.60;99.90
17843;DHT22;69286;48.222;16.332;2024-02-04T05:54:37;8.60;99.90
17843;DHT22;69286;48.222;16.332;2024-02-04T05:57:05;8.60;99.90
17843;DHT22;69286;48.222;16.332;2024-02-04T05:59:32;8.60;99.90
17843;DHT22;69286;48.222;16.332;2024-02-04T06:01:59;8.60;99.90
17843;DHT22;69286;48.222;16.332;2024-02-04T06:04:26;8.60;99.90
17843;DHT22;69286;48.222;16.332;2024-02-04T06:06:54;8.60;99.90
17843;DHT22;69286;48.222;16.332;2024-02-04T06:09:21;8.60;99.90
17843;DHT22;69286;48.222;16.332;2024-02-04T06:11:48;8.60;99.90
17843;DHT22;69286;48.222;16.332;2024-02-04T06:14:15;8.60;99.90
17843;DHT22;69286;48.222;16.332;2024-02-04T06:16:42;8.60;99.90
17843;DHT22;69286;48.222;16.332;2024-02-04T06:19:09;8.60;99.90
17843;DHT22;69286;48.222;16.332;2024-02-04T06:21:38;8.60;99.90
17843;DHT22;69286;48.222;16.332;2024-02-04T06:24:07;8.60;99.90
17843;DHT22;69286;48.222;16.332;2024-02-04T06:26:37;8.60;99.90
17843;DHT22;69286;48.222;16.332;2024-02-04T06:29:05;8.60;99.90
17843;DHT22;69286;48.222;16.332;2024-02-04T06:31:32;8.60;99.90
17843;DHT22;69286;48.222;16.332;2024-02-04T06:33:59;8.70;99.90
17843;DHT22;69286;48.222;16.332;2024-02-04T06:36:26;8.60;99.90
17843;DHT22;69286;48.222;16.332;2024-02-04T06:38:53;8.60;99.90
17843;DHT22;69286;48.222;16.332;2024-02-04T06:41:22;8.60;99.90
17843;DHT22;69286;48.222;16.332;2024-02-04T06:43:49;8.70;99.90
17843;DHT22;69286;48.222;16.332;2024-02-04T06:46:24;8.70;99.90
17843;DHT22;69286;48.222;16.332;2024-02-04T06:48:51;8.70;99.90
17843;DHT22;69286;48.222;16.332;2024-02-04T06:51:18;8.70;99.90
17843;DHT22;69286;48.222;16.332;2024-02-04T06:53:45;8.80;99.90
17843;DHT22;69286;48.222;16.332;2024-02-04T06:56:12;9.00;99.90
17843;DHT22;69286;48.222;16.332;2024-02-04T06:58:41;9.10;99.90
17843;DHT22;69286;48.222;16.332;2024-02-04T07:01:08;9.20;99.90
17843;DHT22;69286;48.222;16.332;2024-02-04T07:03:35;9.20;99.90
17843;DHT22;69286;48.222;16.332;2024-02-04T07:06:03;9.20;99.90
17843;DHT22;69286;48.222;16.332;2024-02-04T07:08:30;9.20;99.90
17843;DHT22;69286;48.222;16.332;2024-02-04T07:10:57;9.20;99.90
17843;DHT22;69286;48.222;16.332;2024-02-04T07:13:24;9.20;99.90
17843;DHT22;69286;48.222;16.332;2024-02-04T07:15:52;9.30;99.90
17843;DHT22;69286;48.222;16.332;2024-02-04T07:18:20;9.30;99.90
17843;DHT22;69286;48.222;16.332;2024-02-04T07:20:48;9.30;99.90
17843;DHT22;69286;48.222;16.332;2024-02-04T07:23:15;9.30;99.90
17843;DHT22;69286;48.222;16.332;2024-02-04T07:25:42;9.40;99.90
17843;DHT22;69286;48.222;16.332;2024-02-04T07:28:09;9.40;99.90
17843;DHT22;69286;48.222;16.332;2024-02-04T07:30:36;9.40;99.90
17843;DHT22;69286;48.222;16.332;2024-02-04T07:33:04;9.40;99.90
17843;DHT22;69286;48.222;16.332;2024-02-04T07:35:32;9.50;99.90
17843;DHT22;69286;48.222;16.332;2024-02-04T07:37:59;9.50;99.90
17843;DHT22;69286;48.222;16.332;2024-02-04T07:40:26;9.50;99.90
17843;DHT22;69286;48.222;16.332;2024-02-04T07:42:53;9.60;99.90
17843;DHT22;69286;48.222;16.332;2024-02-04T07:45:21;9.60;99.90
17843;DHT22;69286;48.222;16.332;2024-02-04T07:47:48;9.60;99.90
17843;DHT22;69286;48.222;16.332;2024-02-04T07:50:16;9.60;99.90
17843;DHT22;69286;48.222;16.332;2024-02-04T07:52:43;9.70;99.90
17843;DHT22;69286;48.222;16.332;2024-02-04T07:55:10;9.70;99.90
17843;DHT22;69286;48.222;16.332;2024-02-04T07:57:37;9.80;99.90
17843;DHT22;69286;48.222;16.332;2024-02-04T08:00:06;9.90;99.90
17843;DHT22;69286;48.222;16.332;2024-02-04T08:02:35;9.90;99.90
17843;DHT22;69286;48.222;16.332;2024-02-04T08:05:03;9.80;99.90
17843;DHT22;69286;48.222;16.332;2024-02-04T08:07:32;9.80;99.90
17843;DHT22;69286;48.222;16.332;2024-02-04T08:09:59;9.80;99.90
17843;DHT22;69286;48.222;16.332;2024-02-04T08:12:26;9.90;99.90
17843;DHT22;69286;48.222;16.332;2024-02-04T08:14:53;10.00;99.90
17843;DHT22;69286;48.222;16.332;2024-02-04T08:17:20;10.10;99.90
17843;DHT22;69286;48.222;16.332;2024-02-04T08:19:47;10.20;99.90
17843;DHT22;69286;48.222;16.332;2024-02-04T08:22:14;10.20;99.90
17843;DHT22;69286;48.222;16.332;2024-02-04T08:24:44;10.20;99.90
17843;DHT22;69286;48.222;16.332;2024-02-04T08:27:12;10.20;99.90
17843;DHT22;69286;48.222;16.332;2024-02-04T08:29:41;10.40;99.90
17843;DHT22;69286;48.222;16.332;2024-02-04T08:32:08;10.50;99.90
17843;DHT22;69286;48.222;16.332;2024-02-04T08:34:35;10.70;99.90
17843;DHT22;69286;48.222;16.332;2024-02-04T08:37:03;11.00;99.90
17843;DHT22;69286;48.222;16.332;2024-02-04T08:39:30;11.20;99.90
17843;DHT22;69286;48.222;16.332;2024-02-04T08:41:58;11.40;99.90
17843;DHT22;69286;48.222;16.332;2024-02-04T08:44:25;11.60;99.90
17843;DHT22;69286;48.222;16.332;2024-02-04T08:46:52;11.80;99.90
17843;DHT22;69286;48.222;16.332;2024-02-04T08:49:21;11.90;99.90
17843;DHT22;69286;48.222;16.332;2024-02-04T08:51:48;12.00;99.90
17843;DHT22;69286;48.222;16.332;2024-02-04T08:54:15;12.10;99.90
17843;DHT22;69286;48.222;16.332;2024-02-04T08:56:43;12.20;99.90
17843;DHT22;69286;48.222;16.332;2024-02-04T08:59:11;12.30;99.90
17843;DHT22;69286;48.222;16.332;2024-02-04T09:01:38;12.50;99.90
17843;DHT22;69286;48.222;16.332;2024-02-04T09:04:05;12.60;99.90
17843;DHT22;69286;48.222;16.332;2024-02-04T09:06:32;13.20;99.90
17843;DHT22;69286;48.222;16.332;2024-02-04T09:08:59;12.80;99.90
17843;DHT22;69286;48.222;16.332;2024-02-04T09:11:26;12.80;99.90
17843;DHT22;69286;48.222;16.332;2024-02-04T09:13:53;12.80;99.90
17843;DHT22;69286;48.222;16.332;2024-02-04T09:16:21;12.90;99.90
17843;DHT22;69286;48.222;16.332;2024-02-04T09:18:48;12.90;99.90
17843;DHT22;69286;48.222;16.332;2024-02-04T09:21:15;13.00;99.90
17843;DHT22;69286;48.222;16.332;2024-02-04T09:23:42;13.10;99.90
17843;DHT22;69286;48.222;16.332;2024-02-04T09:26:09;13.10;99.90
17843;DHT22;69286;48.222;16.332;2024-02-04T09:28:36;13.10;99.90
17843;DHT22;69286;48.222;16.332;2024-02-04T09:31:03;13.10;99.90
17843;DHT22;69286;48.222;16.332;2024-02-04T09:33:32;13.20;99.90
17843;DHT22;69286;48.222;16.332;2024-02-04T09:35:59;13.30;99.90
17843;DHT22;69286;48.222;16.332;2024-02-04T09:38:26;13.40;99.90
17843;DHT22;69286;48.222;16.332;2024-02-04T09:40:53;13.70;99.90
17843;DHT22;69286;48.222;16.332;2024-02-04T09:43:20;13.70;99.90
17843;DHT22;69286;48.222;16.332;2024-02-04T09:45:48;13.70;99.90
17843;DHT22;69286;48.222;16.332;2024-02-04T09:48:17;13.70;99.90
17843;DHT22;69286;48.222;16.332;2024-02-04T09:50:47;13.70;99.90
17843;DHT22;69286;48.222;16.332;2024-02-04T09:53:20;13.80;99.90
17843;DHT22;69286;48.222;16.332;2024-02-04T09:55:49;13.90;99.90
17843;DHT22;69286;48.222;16.332;2024-02-04T09:58:16;13.90;99.90
17843;DHT22;69286;48.222;16.332;2024-02-04T10:00:45;13.90;99.90
17843;DHT22;69286;48.222;16.332;2024-02-04T10:03:14;14.10;99.90
17843;DHT22;69286;48.222;16.332;2024-02-04T10:05:41;14.30;99.90
17843;DHT22;69286;48.222;16.332;2024-02-04T10:08:10;14.50;99.90
17843;DHT22;69286;48.222;16.332;2024-02-04T10:10:37;14.80;99.90
17843;DHT22;69286;48.222;16.332;2024-02-04T10:13:06;14.70;99.90
17843;DHT22;69286;48.222;16.332;2024-02-04T10:15:33;14.50;99.90
17843;DHT22;69286;48.222;16.332;2024-02-04T10:18:03;14.70;99.90
17843;DHT22;69286;48.222;16.332;2024-02-04T10:20:30;14.90;99.90
17843;DHT22;69286;48.222;16.332;2024-02-04T10:22:57;15.20;99.90
17843;DHT22;69286;48.222;16.332;2024-02-04T10:25:26;15.40;99.90
17843;DHT22;69286;48.222;16.332;2024-02-04T10:27:53;15.50;99.90
17843;DHT22;69286;48.222;16.332;2024-02-04T10:30:21;15.60;99.90
17843;DHT22;69286;48.222;16.332;2024-02-04T10:32:50;15.50;99.90
17843;DHT22;69286;48.222;16.332;2024-02-04T10:35:18;15.30;99.90
17843;DHT22;69286;48.222;16.332;2024-02-04T10:37:45;14.80;99.90
17843;DHT22;69286;48.222;16.332;2024-02-04T10:40:13;14.40;99.90
17843;DHT22;69286;48.222;16.332;2024-02-04T10:42:42;14.10;99.90
17843;DHT22;69286;48.222;16.332;2024-02-04T10:45:11;13.90;99.90
17843;DHT22;69286;48.222;16.332;2024-02-04T10:47:40;13.60;99.90
17843;DHT22;69286;48.222;16.332;2024-02-04T10:50:08;13.40;99.90
17843;DHT22;69286;48.222;16.332;2024-02-04T10:52:36;13.30;99.90
17843;DHT22;69286;48.222;16.332;2024-02-04T10:55:07;13.00;99.90
17843;DHT22;69286;48.222;16.332;2024-02-04T10:57:35;12.90;99.90
17843;DHT22;69286;48.222;16.332;2024-02-04T11:00:05;12.80;99.90
17843;DHT22;69286;48.222;16.332;2024-02-04T11:02:35;12.90;99.90
17843;DHT22;69286;48.222;16.332;2024-02-04T11:05:04;12.90;99.90
17843;DHT22;69286;48.222;16.332;2024-02-04T11:07:32;13.00;99.90
17843;DHT22;69286;48.222;16.332;2024-02-04T11:10:00;13.10;99.90
17843;DHT22;69286;48.222;16.332;2024-02-04T11:12:29;13.20;99.90
17843;DHT22;69286;48.222;16.332;2024-02-04T11:15:00;13.30;99.90
17843;DHT22;69286;48.222;16.332;2024-02-04T11:17:51;13.40;99.90
17843;DHT22;69286;48.222;16.332;2024-02-04T11:20:47;13.40;99.90
17843;DHT22;69286;48.222;16.332;2024-02-04T11:23:32;13.50;99.90
17843;DHT22;69286;48.222;16.332;2024-02-04T11:26:01;13.40;99.90
17843;DHT22;69286;48.222;16.332;2024-02-04T11:28:30;13.30;99.90
17843;DHT22;69286;48.222;16.332;2024-02-04T11:30:58;13.10;99.90
17843;DHT22;69286;48.222;16.332;2024-02-04T11:33:27;13.00;99.90
17843;DHT22;69286;48.222;16.332;2024-02-04T11:35:59;12.90;99.90
17843;DHT22;69286;48.222;16.332;2024-02-04T11:38:36;12.80;99.90
17843;DHT22;69286;48.222;16.332;2024-02-04T11:41:04;12.70;99.90
17843;DHT22;69286;48.222;16.332;2024-02-04T11:43:33;12.40;99.90
17843;DHT22;69286;48.222;16.332;2024-02-04T11:46:02;12.30;99.90
17843;DHT22;69286;48.222;16.332;2024-02-04T11:48:32;12.10;99.90
17843;DHT22;69286;48.222;16.332;2024-02-04T11:51:00;12.00;99.90
17843;DHT22;69286;48.222;16.332;2024-02-04T11:53:28;12.00;99.90
17843;DHT22;69286;48.222;16.332;2024-02-04T11:56:00;12.00;99.90
17843;DHT22;69286;48.222;16.332;2024-02-04T11:58:29;12.00;99.90
17843;DHT22;69286;48.222;16.332;2024-02-04T12:00:57;12.00;99.90
17843;DHT22;69286;48.222;16.332;2024-02-04T12:03:32;11.90;99.90
17843;DHT22;69286;48.222;16.332;2024-02-04T12:05:59;11.90;99.90
17843;DHT22;69286;48.222;16.332;2024-02-04T12:08:28;11.90;99.90
17843;DHT22;69286;48.222;16.332;2024-02-04T12:10:55;11.90;99.90
17843;DHT22;69286;48.222;16.332;2024-02-04T12:13:24;11.90;99.90
17843;DHT22;69286;48.222;16.332;2024-02-04T12:15:51;11.90;99.90
17843;DHT22;69286;48.222;16.332;2024-02-04T12:18:18;11.80;99.90
17843;DHT22;69286;48.222;16.332;2024-02-04T12:20:48;11.80;99.90
17843;DHT22;69286;48.222;16.332;2024-02-04T12:23:17;11.80;99.90
17843;DHT22;69286;48.222;16.332;2024-02-04T12:25:44;11.80;99.90
17843;DHT22;69286;48.222;16.332;2024-02-04T12:28:14;11.90;99.90
17843;DHT22;69286;48.222;16.332;2024-02-04T12:30:41;11.90;99.90
17843;DHT22;69286;48.222;16.332;2024-02-04T12:33:19;11.90;99.90
17843;DHT22;69286;48.222;16.332;2024-02-04T12:35:50;11.90;99.90
17843;DHT22;69286;48.222;16.332;2024-02-04T12:38:17;11.90;99.90
17843;DHT22;69286;48.222;16.332;2024-02-04T12:40:45;11.90;99.90
17843;DHT22;69286;48.222;16.332;2024-02-04T12:43:12;11.90;99.90
17843;DHT22;69286;48.222;16.332;2024-02-04T12:45:39;11.90;99.90
17843;DHT22;69286;48.222;16.332;2024-02-04T12:48:07;11.90;99.90
17843;DHT22;69286;48.222;16.332;2024-02-04T12:50:37;11.90;99.90
17843;DHT22;69286;48.222;16.332;2024-02-04T12:53:06;11.90;99.90
17843;DHT22;69286;48.222;16.332;2024-02-04T12:55:35;11.90;99.90
17843;DHT22;69286;48.222;16.332;2024-02-04T13:01:09;12.20;99.90
17843;DHT22;69286;48.222;16.332;2024-02-04T13:03:43;11.80;99.90
17843;DHT22;69286;48.222;16.332;2024-02-04T13:06:15;11.70;99.90
17843;DHT22;69286;48.222;16.332;2024-02-04T13:08:45;11.70;99.90
17843;DHT22;69286;48.222;16.332;2024-02-04T13:11:19;11.70;99.90
17843;DHT22;69286;48.222;16.332;2024-02-04T13:13:46;11.90;99.90
17843;DHT22;69286;48.222;16.332;2024-02-04T13:16:13;11.90;99.90
17843;DHT22;69286;48.222;16.332;2024-02-04T13:18:40;11.90;99.90
17843;DHT22;69286;48.222;16.332;2024-02-04T13:21:07;12.10;99.90
17843;DHT22;69286;48.222;16.332;2024-02-04T13:23:35;12.00;99.90
17843;DHT22;69286;48.222;16.332;2024-02-04T13:26:03;12.00;99.90
17843;DHT22;69286;48.222;16.332;2024-02-04T13:28:31;11.90;99.90
17843;DHT22;69286;48.222;16.332;2024-02-04T13:30:58;11.90;99.90
17843;DHT22;69286;48.222;16.332;2024-02-04T13:33:25;11.80;99.90
17843;DHT22;69286;48.222;16.332;2024-02-04T13:35:52;11.80;99.90
17843;DHT22;69286;48.222;16.332;2024-02-04T13:38:19;11.80;99.90
17843;DHT22;69286;48.222;16.332;2024-02-04T13:40:46;11.80;99.90
17843;DHT22;69286;48.222;16.332;2024-02-04T13:43:14;11.80;99.90
17843;DHT22;69286;48.222;16.332;2024-02-04T13:45:42;11.80;99.90
17843;DHT22;69286;48.222;16.332;2024-02-04T13:48:09;11.90;99.90
17843;DHT22;69286;48.222;16.332;2024-02-04T13:50:36;11.70;99.90
17843;DHT22;69286;48.222;16.332;2024-02-04T13:53:04;11.80;99.90
17843;DHT22;69286;48.222;16.332;2024-02-04T13:55:31;11.80;99.90
17843;DHT22;69286;48.222;16.332;2024-02-04T13:57:58;11.70;99.90
17843;DHT22;69286;48.222;16.332;2024-02-04T14:00:27;11.70;99.90
17843;DHT22;69286;48.222;16.332;2024-02-04T14:02:54;11.70;99.90
17843;DHT22;69286;48.222;16.332;2024-02-04T14:05:21;11.80;99.90
17843;DHT22;69286;48.222;16.332;2024-02-04T14:07:49;11.80;99.90
17843;DHT22;69286;48.222;16.332;2024-02-04T14:10:16;11.80;99.90
17843;DHT22;69286;48.222;16.332;2024-02-04T14:12:43;11.80;99.90
17843;DHT22;69286;48.222;16.332;2024-02-04T14:15:11;11.80;99.90
17843;DHT22;69286;48.222;16.332;2024-02-04T14:17:39;11.70;99.90
17843;DHT22;69286;48.222;16.332;2024-02-04T14:20:07;11.70;99.90
17843;DHT22;69286;48.222;16.332;2024-02-04T14:22:34;11.70;99.90
17843;DHT22;69286;48.222;16.332;2024-02-04T14:25:02;11.70;99.90
17843;DHT22;69286;48.222;16.332;2024-02-04T14:27:29;11.60;99.90
17843;DHT22;69286;48.222;16.332;2024-02-04T14:29:56;11.60;99.90
17843;DHT22;69286;48.222;16.332;2024-02-04T14:32:23;11.50;99.90
17843;DHT22;69286;48.222;16.332;2024-02-04T14:34:51;11.50;99.90
17843;DHT22;69286;48.222;16.332;2024-02-04T14:37:19;11.40;99.90
17843;DHT22;69286;48.222;16.332;2024-02-04T14:39:46;11.40;99.90
17843;DHT22;69286;48.222;16.332;2024-02-04T14:42:14;11.40;99.90
17843;DHT22;69286;48.222;16.332;2024-02-04T14:44:41;11.40;99.90
17843;DHT22;69286;48.222;16.332;2024-02-04T14:47:08;11.40;99.90
17843;DHT22;69286;48.222;16.332;2024-02-04T14:49:36;11.40;99.90
17843;DHT22;69286;48.222;16.332;2024-02-04T14:52:05;11.40;99.90
17843;DHT22;69286;48.222;16.332;2024-02-04T14:54:32;11.40;99.90
17843;DHT22;69286;48.222;16.332;2024-02-04T14:56:59;11.40;99.90
17843;DHT22;69286;48.222;16.332;2024-02-04T14:59:26;11.40;99.90
17843;DHT22;69286;48.222;16.332;2024-02-04T15:01:53;11.40;99.90
17843;DHT22;69286;48.222;16.332;2024-02-04T15:04:19;11.30;99.90
17843;DHT22;69286;48.222;16.332;2024-02-04T15:06:46;11.30;99.90
17843;DHT22;69286;48.222;16.332;2024-02-04T15:09:15;11.30;99.90
17843;DHT22;69286;48.222;16.332;2024-02-04T15:11:42;11.30;99.90
17843;DHT22;69286;48.222;16.332;2024-02-04T15:14:10;11.30;99.90
17843;DHT22;69286;48.222;16.332;2024-02-04T15:16:38;11.30;99.90
17843;DHT22;69286;48.222;16.332;2024-02-04T15:19:06;11.30;99.90
17843;DHT22;69286;48.222;16.332;2024-02-04T15:21:33;11.20;99.90
17843;DHT22;69286;48.222;16.332;2024-02-04T15:24:00;11.20;99.90
17843;DHT22;69286;48.222;16.332;2024-02-04T15:26:32;11.20;99.90
17843;DHT22;69286;48.222;16.332;2024-02-04T15:29:02;11.20;99.90
17843;DHT22;69286;48.222;16.332;2024-02-04T15:31:29;11.20;99.90
17843;DHT22;69286;48.222;16.332;2024-02-04T15:33:59;11.20;99.90